sensor_id;sensor_type;location;lat;lon;timestamp;P1;durP1;ratioP1;P2;durP2;ratioP2
21326;SDS011;10822;51.532;6.770;2022-10-16T00:01:08;6.97;;;4.05;;
21326;SDS011;10822;51.532;6.770;2022-10-16T00:03:36;6.47;;;3.40;;
21326;SDS011;10822;51.532;6.770;2022-10-16T00:06:02;7.47;;;3.45;;
21326;SDS011;10822;51.532;6.770;2022-10-16T00:08:28;5.20;;;3.13;;
21326;SDS011;10822;51.532;6.770;2022-10-16T00:11:08;6.93;;;3.08;;
21326;SDS011;10822;51.532;6.770;2022-10-16T00:13:35;6.03;;;2.88;;
21326;SDS011;10822;51.532;6.770;2022-10-16T00:16:02;6.97;;;2.55;;
21326;SDS011;10822;51.532;6.770;2022-10-16T00:18:28;6.80;;;2.85;;
21326;SDS011;10822;51.532;6.770;2022-10-16T00:20:54;5.32;;;2.60;;
21326;SDS011;10822;51.532;6.770;2022-10-16T00:23:20;5.40;;;2.80;;
21326;SDS011;10822;51.532;6.770;2022-10-16T00:25:57;9.60;;;2.97;;
21326;SDS011;10822;51.532;6.770;2022-10-16T00:28:23;4.95;;;2.30;;
21326;SDS011;10822;51.532;6.770;2022-10-16T00:30:49;5.32;;;2.80;;
21326;SDS011;10822;51.532;6.770;2022-10-16T00:33:15;6.90;;;3.10;;
21326;SDS011;10822;51.532;6.770;2022-10-16T00:35:41;4.85;;;2.30;;
21326;SDS011;10822;51.532;6.770;2022-10-16T00:38:07;4.70;;;2.33;;
21326;SDS011;10822;51.532;6.770;2022-10-16T00:40:33;5.55;;;2.40;;
21326;SDS011;10822;51.532;6.770;2022-10-16T00:42:59;6.05;;;2.72;;
21326;SDS011;10822;51.532;6.770;2022-10-16T00:45:25;6.47;;;2.53;;
21326;SDS011;10822;51.532;6.770;2022-10-16T00:47:51;5.40;;;2.67;;
21326;SDS011;10822;51.532;6.770;2022-10-16T00:50:30;8.00;;;3.42;;
21326;SDS011;10822;51.532;6.770;2022-10-16T00:52:57;5.22;;;3.40;;
21326;SDS011;10822;51.532;6.770;2022-10-16T00:55:24;8.77;;;3.60;;
21326;SDS011;10822;51.532;6.770;2022-10-16T00:57:50;5.50;;;3.17;;
21326;SDS011;10822;51.532;6.770;2022-10-16T01:00:21;8.20;;;3.83;;
21326;SDS011;10822;51.532;6.770;2022-10-16T01:02:54;8.65;;;3.83;;
21326;SDS011;10822;51.532;6.770;2022-10-16T01:05:21;9.48;;;4.15;;
21326;SDS011;10822;51.532;6.770;2022-10-16T01:10:23;13.48;;;4.53;;
21326;SDS011;10822;51.532;6.770;2022-10-16T01:13:09;9.77;;;4.55;;
21326;SDS011;10822;51.532;6.770;2022-10-16T01:16:22;9.60;;;4.10;;
21326;SDS011;10822;51.532;6.770;2022-10-16T01:21:01;7.03;;;3.22;;
21326;SDS011;10822;51.532;6.770;2022-10-16T01:28:44;8.95;;;3.10;;
21326;SDS011;10822;51.532;6.770;2022-10-16T01:31:14;6.30;;;2.90;;
21326;SDS011;10822;51.532;6.770;2022-10-16T01:33:45;9.63;;;3.13;;
21326;SDS011;10822;51.532;6.770;2022-10-16T01:36:13;8.05;;;3.40;;
21326;SDS011;10822;51.532;6.770;2022-10-16T01:38:40;10.15;;;3.47;;
21326;SDS011;10822;51.532;6.770;2022-10-16T01:41:18;7.97;;;3.00;;
21326;SDS011;10822;51.532;6.770;2022-10-16T01:43:48;7.35;;;2.83;;
21326;SDS011;10822;51.532;6.770;2022-10-16T01:46:16;6.55;;;2.55;;
21326;SDS011;10822;51.532;6.770;2022-10-16T01:48:44;4.82;;;2.53;;
21326;SDS011;10822;51.532;6.770;2022-10-16T01:51:11;7.30;;;2.85;;
21326;SDS011;10822;51.532;6.770;2022-10-16T01:53:38;6.25;;;1.85;;
21326;SDS011;10822;51.532;6.770;2022-10-16T01:56:06;3.90;;;1.77;;
21326;SDS011;10822;51.532;6.770;2022-10-16T01:58:34;2.00;;;1.40;;
21326;SDS011;10822;51.532;6.770;2022-10-16T02:01:02;3.20;;;1.90;;
21326;SDS011;10822;51.532;6.770;2022-10-16T02:03:28;3.47;;;1.70;;
21326;SDS011;10822;51.532;6.770;2022-10-16T02:05:55;3.72;;;1.83;;
21326;SDS011;10822;51.532;6.770;2022-10-16T02:08:22;5.20;;;1.98;;
21326;SDS011;10822;51.532;6.770;2022-10-16T02:10:49;8.52;;;3.10;;
21326;SDS011;10822;51.532;6.770;2022-10-16T02:13:17;6.43;;;3.20;;
21326;SDS011;10822;51.532;6.770;2022-10-16T02:15:43;5.45;;;3.10;;
21326;SDS011;10822;51.532;6.770;2022-10-16T02:18:09;9.10;;;3.20;;
21326;SDS011;10822;51.532;6.770;2022-10-16T02:20:41;8.25;;;3.85;;
21326;SDS011;10822;51.532;6.770;2022-10-16T02:23:09;6.72;;;3.63;;
21326;SDS011;10822;51.532;6.770;2022-10-16T02:25:38;6.53;;;3.92;;
21326;SDS011;10822;51.532;6.770;2022-10-16T02:28:06;7.03;;;3.17;;
21326;SDS011;10822;51.532;6.770;2022-10-16T02:30:38;6.43;;;3.67;;
21326;SDS011;10822;51.532;6.770;2022-10-16T02:33:07;6.85;;;3.70;;
21326;SDS011;10822;51.532;6.770;2022-10-16T02:35:34;8.82;;;3.47;;
21326;SDS011;10822;51.532;6.770;2022-10-16T02:38:00;8.10;;;3.75;;
21326;SDS011;10822;51.532;6.770;2022-10-16T02:40:26;11.18;;;4.30;;
21326;SDS011;10822;51.532;6.770;2022-10-16T02:42:53;8.20;;;3.95;;
21326;SDS011;10822;51.532;6.770;2022-10-16T02:45:19;8.82;;;4.05;;
21326;SDS011;10822;51.532;6.770;2022-10-16T02:47:46;8.77;;;4.28;;
21326;SDS011;10822;51.532;6.770;2022-10-16T02:50:12;9.23;;;4.15;;
21326;SDS011;10822;51.532;6.770;2022-10-16T02:52:38;10.02;;;4.18;;
21326;SDS011;10822;51.532;6.770;2022-10-16T02:55:04;9.77;;;4.60;;
21326;SDS011;10822;51.532;6.770;2022-10-16T02:57:30;8.20;;;5.15;;
21326;SDS011;10822;51.532;6.770;2022-10-16T02:59:56;9.45;;;4.35;;
21326;SDS011;10822;51.532;6.770;2022-10-16T03:02:22;10.10;;;5.00;;
21326;SDS011;10822;51.532;6.770;2022-10-16T03:04:48;9.95;;;4.50;;
21326;SDS011;10822;51.532;6.770;2022-10-16T03:07:14;10.70;;;5.10;;
21326;SDS011;10822;51.532;6.770;2022-10-16T03:09:40;9.35;;;4.30;;
21326;SDS011;10822;51.532;6.770;2022-10-16T03:12:06;6.03;;;4.20;;
21326;SDS011;10822;51.532;6.770;2022-10-16T03:14:33;6.38;;;3.85;;
21326;SDS011;10822;51.532;6.770;2022-10-16T03:16:59;9.85;;;3.20;;
21326;SDS011;10822;51.532;6.770;2022-10-16T03:19:25;8.38;;;2.72;;
21326;SDS011;10822;51.532;6.770;2022-10-16T03:21:51;5.13;;;2.42;;
21326;SDS011;10822;51.532;6.770;2022-10-16T03:24:17;7.55;;;2.25;;
21326;SDS011;10822;51.532;6.770;2022-10-16T03:26:43;5.75;;;1.75;;
21326;SDS011;10822;51.532;6.770;2022-10-16T03:29:09;2.58;;;1.70;;
21326;SDS011;10822;51.532;6.770;2022-10-16T03:31:35;2.15;;;1.60;;
21326;SDS011;10822;51.532;6.770;2022-10-16T03:34:00;4.47;;;1.67;;
21326;SDS011;10822;51.532;6.770;2022-10-16T03:36:26;1.23;;;1.10;;
21326;SDS011;10822;51.532;6.770;2022-10-16T03:38:52;2.35;;;1.38;;
21326;SDS011;10822;51.532;6.770;2022-10-16T03:41:18;2.85;;;1.20;;
21326;SDS011;10822;51.532;6.770;2022-10-16T03:43:44;2.45;;;0.98;;
21326;SDS011;10822;51.532;6.770;2022-10-16T03:46:10;1.67;;;0.88;;
21326;SDS011;10822;51.532;6.770;2022-10-16T03:48:36;1.92;;;0.90;;
21326;SDS011;10822;51.532;6.770;2022-10-16T03:51:02;3.05;;;1.20;;
21326;SDS011;10822;51.532;6.770;2022-10-16T03:53:28;1.55;;;0.95;;
21326;SDS011;10822;51.532;6.770;2022-10-16T03:55:54;1.45;;;0.90;;
21326;SDS011;10822;51.532;6.770;2022-10-16T03:58:20;2.65;;;1.00;;
21326;SDS011;10822;51.532;6.770;2022-10-16T04:00:46;1.95;;;0.82;;
21326;SDS011;10822;51.532;6.770;2022-10-16T04:03:13;1.65;;;1.00;;
21326;SDS011;10822;51.532;6.770;2022-10-16T04:05:39;2.17;;;1.30;;
21326;SDS011;10822;51.532;6.770;2022-10-16T04:08:05;1.10;;;0.95;;
21326;SDS011;10822;51.532;6.770;2022-10-16T04:10:31;2.97;;;1.02;;
21326;SDS011;10822;51.532;6.770;2022-10-16T04:12:57;3.03;;;1.00;;
21326;SDS011;10822;51.532;6.770;2022-10-16T04:15:23;1.98;;;1.08;;
21326;SDS011;10822;51.532;6.770;2022-10-16T04:17:49;2.92;;;0.80;;
21326;SDS011;10822;51.532;6.770;2022-10-16T04:20:15;3.40;;;1.05;;
21326;SDS011;10822;51.532;6.770;2022-10-16T04:22:41;1.80;;;1.00;;
21326;SDS011;10822;51.532;6.770;2022-10-16T04:25:08;2.17;;;1.00;;
21326;SDS011;10822;51.532;6.770;2022-10-16T04:27:34;2.97;;;1.33;;
21326;SDS011;10822;51.532;6.770;2022-10-16T04:30:00;1.65;;;0.95;;
21326;SDS011;10822;51.532;6.770;2022-10-16T04:32:26;2.10;;;1.20;;
21326;SDS011;10822;51.532;6.770;2022-10-16T04:34:52;2.88;;;1.10;;
21326;SDS011;10822;51.532;6.770;2022-10-16T04:37:18;3.67;;;1.30;;
21326;SDS011;10822;51.532;6.770;2022-10-16T04:39:45;3.20;;;1.33;;
21326;SDS011;10822;51.532;6.770;2022-10-16T04:42:11;1.17;;;0.73;;
21326;SDS011;10822;51.532;6.770;2022-10-16T04:44:37;3.13;;;0.80;;
21326;SDS011;10822;51.532;6.770;2022-10-16T04:47:03;0.73;;;0.60;;
21326;SDS011;10822;51.532;6.770;2022-10-16T04:49:29;1.55;;;0.80;;
21326;SDS011;10822;51.532;6.770;2022-10-16T04:51:55;1.00;;;0.90;;
21326;SDS011;10822;51.532;6.770;2022-10-16T04:54:21;4.70;;;0.95;;
21326;SDS011;10822;51.532;6.770;2022-10-16T04:56:47;1.60;;;1.15;;
21326;SDS011;10822;51.532;6.770;2022-10-16T04:59:15;0.98;;;0.88;;
21326;SDS011;10822;51.532;6.770;2022-10-16T05:01:42;2.50;;;0.98;;
21326;SDS011;10822;51.532;6.770;2022-10-16T05:04:08;1.90;;;0.73;;
21326;SDS011;10822;51.532;6.770;2022-10-16T05:06:34;2.90;;;1.17;;
21326;SDS011;10822;51.532;6.770;2022-10-16T05:09:00;3.05;;;0.95;;
21326;SDS011;10822;51.532;6.770;2022-10-16T05:11:26;2.22;;;0.80;;
21326;SDS011;10822;51.532;6.770;2022-10-16T05:13:51;3.95;;;1.60;;
21326;SDS011;10822;51.532;6.770;2022-10-16T05:16:17;2.20;;;1.42;;
21326;SDS011;10822;51.532;6.770;2022-10-16T05:18:43;2.20;;;1.20;;
21326;SDS011;10822;51.532;6.770;2022-10-16T05:21:09;2.00;;;1.30;;
21326;SDS011;10822;51.532;6.770;2022-10-16T05:23:35;4.70;;;1.38;;
21326;SDS011;10822;51.532;6.770;2022-10-16T05:26:01;10.50;;;3.40;;
21326;SDS011;10822;51.532;6.770;2022-10-16T05:28:28;5.00;;;2.58;;
21326;SDS011;10822;51.532;6.770;2022-10-16T05:30:55;4.53;;;2.10;;
21326;SDS011;10822;51.532;6.770;2022-10-16T05:33:21;6.22;;;2.08;;
21326;SDS011;10822;51.532;6.770;2022-10-16T05:35:47;5.50;;;2.00;;
21326;SDS011;10822;51.532;6.770;2022-10-16T05:38:14;2.83;;;1.40;;
21326;SDS011;10822;51.532;6.770;2022-10-16T05:40:40;5.95;;;1.80;;
21326;SDS011;10822;51.532;6.770;2022-10-16T05:43:06;4.65;;;1.83;;
21326;SDS011;10822;51.532;6.770;2022-10-16T05:45:32;6.72;;;2.10;;
21326;SDS011;10822;51.532;6.770;2022-10-16T05:47:59;3.13;;;1.45;;
21326;SDS011;10822;51.532;6.770;2022-10-16T05:50:25;3.95;;;1.50;;
21326;SDS011;10822;51.532;6.770;2022-10-16T05:52:51;2.55;;;1.40;;
21326;SDS011;10822;51.532;6.770;2022-10-16T05:55:17;2.95;;;1.10;;
21326;SDS011;10822;51.532;6.770;2022-10-16T05:57:42;3.05;;;1.52;;
21326;SDS011;10822;51.532;6.770;2022-10-16T06:00:09;2.13;;;1.52;;
21326;SDS011;10822;51.532;6.770;2022-10-16T06:02:35;3.28;;;1.40;;
21326;SDS011;10822;51.532;6.770;2022-10-16T06:05:01;4.47;;;1.75;;
21326;SDS011;10822;51.532;6.770;2022-10-16T06:07:27;6.00;;;1.00;;
21326;SDS011;10822;51.532;6.770;2022-10-16T06:09:53;3.28;;;1.40;;
21326;SDS011;10822;51.532;6.770;2022-10-16T06:12:19;2.90;;;1.70;;
21326;SDS011;10822;51.532;6.770;2022-10-16T06:14:45;2.13;;;1.48;;
21326;SDS011;10822;51.532;6.770;2022-10-16T06:17:12;2.80;;;1.42;;
21326;SDS011;10822;51.532;6.770;2022-10-16T06:19:39;2.60;;;1.23;;
21326;SDS011;10822;51.532;6.770;2022-10-16T06:22:05;2.42;;;1.35;;
21326;SDS011;10822;51.532;6.770;2022-10-16T06:24:30;2.15;;;1.13;;
21326;SDS011;10822;51.532;6.770;2022-10-16T06:26:56;1.67;;;1.33;;
21326;SDS011;10822;51.532;6.770;2022-10-16T06:29:22;4.25;;;2.03;;
21326;SDS011;10822;51.532;6.770;2022-10-16T06:31:48;2.95;;;1.50;;
21326;SDS011;10822;51.532;6.770;2022-10-16T06:34:14;2.40;;;1.60;;
21326;SDS011;10822;51.532;6.770;2022-10-16T06:36:40;5.50;;;1.83;;
21326;SDS011;10822;51.532;6.770;2022-10-16T06:39:08;2.75;;;1.58;;
21326;SDS011;10822;51.532;6.770;2022-10-16T06:41:34;2.88;;;1.90;;
21326;SDS011;10822;51.532;6.770;2022-10-16T06:44:00;2.42;;;1.40;;
21326;SDS011;10822;51.532;6.770;2022-10-16T06:46:26;3.17;;;1.60;;
21326;SDS011;10822;51.532;6.770;2022-10-16T06:48:53;4.60;;;1.60;;
21326;SDS011;10822;51.532;6.770;2022-10-16T06:51:20;6.03;;;1.88;;
21326;SDS011;10822;51.532;6.770;2022-10-16T06:53:47;6.78;;;1.63;;
21326;SDS011;10822;51.532;6.770;2022-10-16T06:58:42;4.25;;;2.10;;
21326;SDS011;10822;51.532;6.770;2022-10-16T07:01:08;5.63;;;1.77;;
21326;SDS011;10822;51.532;6.770;2022-10-16T07:03:37;4.75;;;2.00;;
21326;SDS011;10822;51.532;6.770;2022-10-16T07:06:04;3.97;;;1.90;;
21326;SDS011;10822;51.532;6.770;2022-10-16T07:08:35;6.40;;;2.03;;
21326;SDS011;10822;51.532;6.770;2022-10-16T07:11:01;6.47;;;2.42;;
21326;SDS011;10822;51.532;6.770;2022-10-16T07:13:27;5.65;;;2.35;;
21326;SDS011;10822;51.532;6.770;2022-10-16T07:15:54;6.15;;;2.40;;
21326;SDS011;10822;51.532;6.770;2022-10-16T07:18:19;3.80;;;2.53;;
21326;SDS011;10822;51.532;6.770;2022-10-16T07:20:46;5.00;;;2.67;;
21326;SDS011;10822;51.532;6.770;2022-10-16T07:23:12;3.42;;;2.50;;
21326;SDS011;10822;51.532;6.770;2022-10-16T07:25:38;5.53;;;2.65;;
21326;SDS011;10822;51.532;6.770;2022-10-16T07:28:04;4.40;;;2.20;;
21326;SDS011;10822;51.532;6.770;2022-10-16T07:30:30;8.07;;;3.00;;
21326;SDS011;10822;51.532;6.770;2022-10-16T07:32:56;6.60;;;2.88;;
21326;SDS011;10822;51.532;6.770;2022-10-16T07:35:22;5.07;;;2.90;;
21326;SDS011;10822;51.532;6.770;2022-10-16T07:37:48;7.80;;;2.65;;
21326;SDS011;10822;51.532;6.770;2022-10-16T07:40:14;5.53;;;2.15;;
21326;SDS011;10822;51.532;6.770;2022-10-16T07:42:40;3.60;;;1.70;;
21326;SDS011;10822;51.532;6.770;2022-10-16T07:45:06;3.25;;;1.70;;
21326;SDS011;10822;51.532;6.770;2022-10-16T07:47:32;4.35;;;2.30;;
21326;SDS011;10822;51.532;6.770;2022-10-16T07:49:58;7.85;;;2.28;;
21326;SDS011;10822;51.532;6.770;2022-10-16T07:52:24;6.88;;;2.33;;
21326;SDS011;10822;51.532;6.770;2022-10-16T07:54:50;6.10;;;2.45;;
21326;SDS011;10822;51.532;6.770;2022-10-16T07:57:15;5.00;;;2.20;;
21326;SDS011;10822;51.532;6.770;2022-10-16T07:59:44;6.40;;;2.40;;
21326;SDS011;10822;51.532;6.770;2022-10-16T08:02:10;8.85;;;2.72;;
21326;SDS011;10822;51.532;6.770;2022-10-16T08:04:36;6.97;;;2.97;;
21326;SDS011;10822;51.532;6.770;2022-10-16T08:07:02;8.85;;;2.70;;
21326;SDS011;10822;51.532;6.770;2022-10-16T08:09:28;5.65;;;2.33;;
21326;SDS011;10822;51.532;6.770;2022-10-16T08:11:54;5.65;;;2.30;;
21326;SDS011;10822;51.532;6.770;2022-10-16T08:14:20;3.83;;;2.08;;
21326;SDS011;10822;51.532;6.770;2022-10-16T08:16:46;7.00;;;2.50;;
21326;SDS011;10822;51.532;6.770;2022-10-16T08:19:12;6.43;;;2.25;;
21326;SDS011;10822;51.532;6.770;2022-10-16T08:21:40;6.32;;;3.00;;
21326;SDS011;10822;51.532;6.770;2022-10-16T08:24:06;7.20;;;2.80;;
21326;SDS011;10822;51.532;6.770;2022-10-16T08:26:32;9.65;;;2.95;;
21326;SDS011;10822;51.532;6.770;2022-10-16T08:28:58;6.82;;;2.40;;
21326;SDS011;10822;51.532;6.770;2022-10-16T08:31:24;4.82;;;2.03;;
21326;SDS011;10822;51.532;6.770;2022-10-16T08:33:52;2.95;;;1.40;;
21326;SDS011;10822;51.532;6.770;2022-10-16T08:36:17;3.28;;;1.20;;
21326;SDS011;10822;51.532;6.770;2022-10-16T08:38:43;3.10;;;1.20;;
21326;SDS011;10822;51.532;6.770;2022-10-16T08:46:14;3.22;;;1.10;;
21326;SDS011;10822;51.532;6.770;2022-10-16T08:48:49;2.72;;;1.00;;
21326;SDS011;10822;51.532;6.770;2022-10-16T08:53:52;3.53;;;1.17;;
21326;SDS011;10822;51.532;6.770;2022-10-16T08:56:19;4.95;;;0.88;;
21326;SDS011;10822;51.532;6.770;2022-10-16T08:58:45;2.15;;;0.70;;
21326;SDS011;10822;51.532;6.770;2022-10-16T09:01:13;2.67;;;0.90;;
21326;SDS011;10822;51.532;6.770;2022-10-16T09:03:53;2.33;;;1.00;;
21326;SDS011;10822;51.532;6.770;2022-10-16T09:11:36;1.48;;;0.80;;
21326;SDS011;10822;51.532;6.770;2022-10-16T09:16:31;2.85;;;0.88;;
21326;SDS011;10822;51.532;6.770;2022-10-16T09:21:26;4.07;;;1.00;;
21326;SDS011;10822;51.532;6.770;2022-10-16T09:23:53;2.53;;;0.88;;
21326;SDS011;10822;51.532;6.770;2022-10-16T09:26:20;3.03;;;0.80;;
21326;SDS011;10822;51.532;6.770;2022-10-16T09:28:47;5.13;;;1.10;;
21326;SDS011;10822;51.532;6.770;2022-10-16T09:31:20;2.58;;;1.05;;
21326;SDS011;10822;51.532;6.770;2022-10-16T09:33:51;3.85;;;0.90;;
21326;SDS011;10822;51.532;6.770;2022-10-16T09:36:18;2.67;;;0.98;;
21326;SDS011;10822;51.532;6.770;2022-10-16T09:38:45;4.40;;;0.90;;
21326;SDS011;10822;51.532;6.770;2022-10-16T09:41:21;1.25;;;0.70;;
21326;SDS011;10822;51.532;6.770;2022-10-16T09:43:57;2.70;;;0.90;;
21326;SDS011;10822;51.532;6.770;2022-10-16T09:48:59;1.92;;;0.80;;
21326;SDS011;10822;51.532;6.770;2022-10-16T09:51:27;4.53;;;1.02;;
21326;SDS011;10822;51.532;6.770;2022-10-16T09:53:54;2.40;;;1.15;;
21326;SDS011;10822;51.532;6.770;2022-10-16T09:56:25;3.20;;;0.88;;
21326;SDS011;10822;51.532;6.770;2022-10-16T09:58:52;1.85;;;0.70;;
21326;SDS011;10822;51.532;6.770;2022-10-16T10:01:18;2.28;;;0.85;;
21326;SDS011;10822;51.532;6.770;2022-10-16T10:03:44;2.40;;;1.00;;
21326;SDS011;10822;51.532;6.770;2022-10-16T10:06:16;4.38;;;1.10;;
21326;SDS011;10822;51.532;6.770;2022-10-16T10:09:00;1.30;;;0.80;;
21326;SDS011;10822;51.532;6.770;2022-10-16T10:11:43;2.08;;;0.80;;
21326;SDS011;10822;51.532;6.770;2022-10-16T10:16:51;4.38;;;1.00;;
21326;SDS011;10822;51.532;6.770;2022-10-16T10:19:21;1.83;;;0.70;;
21326;SDS011;10822;51.532;6.770;2022-10-16T10:21:48;3.03;;;0.60;;
21326;SDS011;10822;51.532;6.770;2022-10-16T10:24:17;2.22;;;0.65;;
21326;SDS011;10822;51.532;6.770;2022-10-16T10:26:49;1.90;;;1.00;;
21326;SDS011;10822;51.532;6.770;2022-10-16T10:32:25;1.85;;;0.60;;
21326;SDS011;10822;51.532;6.770;2022-10-16T10:39:50;2.28;;;0.50;;
21326;SDS011;10822;51.532;6.770;2022-10-16T10:42:22;2.58;;;0.85;;
21326;SDS011;10822;51.532;6.770;2022-10-16T10:47:27;1.67;;;0.60;;
21326;SDS011;10822;51.532;6.770;2022-10-16T10:52:42;1.23;;;0.70;;
21326;SDS011;10822;51.532;6.770;2022-10-16T11:00:28;2.08;;;0.50;;
21326;SDS011;10822;51.532;6.770;2022-10-16T11:05:49;3.72;;;0.80;;
21326;SDS011;10822;51.532;6.770;2022-10-16T11:08:22;2.20;;;0.80;;
21326;SDS011;10822;51.532;6.770;2022-10-16T11:10:57;3.25;;;0.70;;
21326;SDS011;10822;51.532;6.770;2022-10-16T11:16:00;2.20;;;0.80;;
21326;SDS011;10822;51.532;6.770;2022-10-16T11:18:50;1.58;;;0.57;;
21326;SDS011;10822;51.532;6.770;2022-10-16T11:21:14;2.53;;;0.63;;
21326;SDS011;10822;51.532;6.770;2022-10-16T11:24:04;1.75;;;0.63;;
21326;SDS011;10822;51.532;6.770;2022-10-16T11:26:29;1.73;;;0.70;;
21326;SDS011;10822;51.532;6.770;2022-10-16T11:28:56;4.10;;;1.10;;
21326;SDS011;10822;51.532;6.770;2022-10-16T11:36:27;2.90;;;1.00;;
21326;SDS011;10822;51.532;6.770;2022-10-16T11:39:00;2.50;;;1.30;;
21326;SDS011;10822;51.532;6.770;2022-10-16T11:46:38;2.35;;;0.80;;
21326;SDS011;10822;51.532;6.770;2022-10-16T11:56:24;2.78;;;0.80;;
21326;SDS011;10822;51.532;6.770;2022-10-16T11:59:03;2.28;;;0.70;;
21326;SDS011;10822;51.532;6.770;2022-10-16T12:01:41;3.92;;;0.90;;
21326;SDS011;10822;51.532;6.770;2022-10-16T12:04:23;2.55;;;0.68;;
21326;SDS011;10822;51.532;6.770;2022-10-16T12:06:58;2.08;;;0.60;;
21326;SDS011;10822;51.532;6.770;2022-10-16T12:09:29;2.90;;;0.90;;
21326;SDS011;10822;51.532;6.770;2022-10-16T12:11:56;1.40;;;0.50;;
21326;SDS011;10822;51.532;6.770;2022-10-16T12:16:55;1.70;;;0.68;;
21326;SDS011;10822;51.532;6.770;2022-10-16T12:19:22;2.55;;;0.93;;
21326;SDS011;10822;51.532;6.770;2022-10-16T12:21:49;2.20;;;0.70;;
21326;SDS011;10822;51.532;6.770;2022-10-16T12:27:01;2.70;;;0.60;;
21326;SDS011;10822;51.532;6.770;2022-10-16T12:29:34;4.15;;;0.95;;
21326;SDS011;10822;51.532;6.770;2022-10-16T12:32:02;1.80;;;0.70;;
21326;SDS011;10822;51.532;6.770;2022-10-16T12:34:31;3.70;;;0.88;;
21326;SDS011;10822;51.532;6.770;2022-10-16T12:37:07;2.08;;;0.70;;
21326;SDS011;10822;51.532;6.770;2022-10-16T12:39:34;2.83;;;0.80;;
21326;SDS011;10822;51.532;6.770;2022-10-16T12:42:06;2.20;;;0.90;;
21326;SDS011;10822;51.532;6.770;2022-10-16T12:44:44;2.00;;;0.63;;
21326;SDS011;10822;51.532;6.770;2022-10-16T12:50:23;2.55;;;0.70;;
21326;SDS011;10822;51.532;6.770;2022-10-16T12:52:49;1.80;;;0.80;;
21326;SDS011;10822;51.532;6.770;2022-10-16T12:55:16;3.70;;;0.80;;
21326;SDS011;10822;51.532;6.770;2022-10-16T13:01:10;2.95;;;1.00;;
21326;SDS011;10822;51.532;6.770;2022-10-16T13:14:33;1.92;;;0.70;;
21326;SDS011;10822;51.532;6.770;2022-10-16T13:17:08;1.40;;;0.60;;
21326;SDS011;10822;51.532;6.770;2022-10-16T13:20:10;1.92;;;0.70;;
21326;SDS011;10822;51.532;6.770;2022-10-16T13:22:37;2.67;;;0.60;;
21326;SDS011;10822;51.532;6.770;2022-10-16T13:25:10;3.05;;;0.60;;
21326;SDS011;10822;51.532;6.770;2022-10-16T13:27:43;3.58;;;0.90;;
21326;SDS011;10822;51.532;6.770;2022-10-16T13:32:36;2.05;;;0.68;;
21326;SDS011;10822;51.532;6.770;2022-10-16T13:35:02;1.63;;;0.70;;
21326;SDS011;10822;51.532;6.770;2022-10-16T13:37:29;1.08;;;0.63;;
21326;SDS011;10822;51.532;6.770;2022-10-16T13:40:12;2.00;;;0.57;;
21326;SDS011;10822;51.532;6.770;2022-10-16T13:42:43;1.48;;;0.63;;
21326;SDS011;10822;51.532;6.770;2022-10-16T13:45:23;3.15;;;0.95;;
21326;SDS011;10822;51.532;6.770;2022-10-16T13:47:50;1.77;;;0.80;;
21326;SDS011;10822;51.532;6.770;2022-10-16T13:50:26;1.27;;;0.80;;
21326;SDS011;10822;51.532;6.770;2022-10-16T13:53:02;2.80;;;0.70;;
21326;SDS011;10822;51.532;6.770;2022-10-16T13:55:28;1.35;;;0.77;;
21326;SDS011;10822;51.532;6.770;2022-10-16T13:58:03;2.47;;;1.00;;
21326;SDS011;10822;51.532;6.770;2022-10-16T14:00:29;2.53;;;0.80;;
21326;SDS011;10822;51.532;6.770;2022-10-16T14:03:07;2.15;;;0.70;;
21326;SDS011;10822;51.532;6.770;2022-10-16T14:05:33;3.08;;;0.80;;
21326;SDS011;10822;51.532;6.770;2022-10-16T14:08:00;2.30;;;1.40;;
21326;SDS011;10822;51.532;6.770;2022-10-16T14:10:27;7.22;;;1.60;;
21326;SDS011;10822;51.532;6.770;2022-10-16T14:12:59;3.10;;;1.50;;
21326;SDS011;10822;51.532;6.770;2022-10-16T14:15:25;4.93;;;2.25;;
21326;SDS011;10822;51.532;6.770;2022-10-16T14:17:51;1.75;;;1.10;;
21326;SDS011;10822;51.532;6.770;2022-10-16T14:20:18;4.55;;;2.28;;
21326;SDS011;10822;51.532;6.770;2022-10-16T14:22:44;7.45;;;3.45;;
21326;SDS011;10822;51.532;6.770;2022-10-16T14:30:32;2.47;;;1.10;;
21326;SDS011;10822;51.532;6.770;2022-10-16T14:32:59;3.35;;;1.30;;
21326;SDS011;10822;51.532;6.770;2022-10-16T14:37:58;3.25;;;1.20;;
21326;SDS011;10822;51.532;6.770;2022-10-16T14:40:26;3.75;;;1.55;;
21326;SDS011;10822;51.532;6.770;2022-10-16T14:42:52;3.67;;;1.70;;
21326;SDS011;10822;51.532;6.770;2022-10-16T14:45:23;6.43;;;1.60;;
21326;SDS011;10822;51.532;6.770;2022-10-16T14:48:14;2.38;;;1.70;;
21326;SDS011;10822;51.532;6.770;2022-10-16T14:50:39;2.08;;;1.20;;
21326;SDS011;10822;51.532;6.770;2022-10-16T14:53:08;2.97;;;1.40;;
21326;SDS011;10822;51.532;6.770;2022-10-16T14:55:37;2.30;;;1.25;;
21326;SDS011;10822;51.532;6.770;2022-10-16T14:58:03;4.10;;;1.35;;
21326;SDS011;10822;51.532;6.770;2022-10-16T15:00:29;3.08;;;1.60;;
21326;SDS011;10822;51.532;6.770;2022-10-16T15:02:55;3.42;;;1.50;;
21326;SDS011;10822;51.532;6.770;2022-10-16T15:05:22;4.80;;;1.30;;
21326;SDS011;10822;51.532;6.770;2022-10-16T15:07:49;4.30;;;1.90;;
21326;SDS011;10822;51.532;6.770;2022-10-16T15:10:16;4.40;;;1.52;;
21326;SDS011;10822;51.532;6.770;2022-10-16T15:12:42;3.17;;;1.70;;
21326;SDS011;10822;51.532;6.770;2022-10-16T15:17:54;3.95;;;1.55;;
21326;SDS011;10822;51.532;6.770;2022-10-16T15:20:26;4.72;;;1.50;;
21326;SDS011;10822;51.532;6.770;2022-10-16T15:22:52;3.75;;;1.67;;
21326;SDS011;10822;51.532;6.770;2022-10-16T15:25:29;3.55;;;1.50;;
21326;SDS011;10822;51.532;6.770;2022-10-16T15:27:56;3.53;;;1.30;;
21326;SDS011;10822;51.532;6.770;2022-10-16T15:30:22;6.28;;;1.50;;
21326;SDS011;10822;51.532;6.770;2022-10-16T15:32:48;3.63;;;1.52;;
21326;SDS011;10822;51.532;6.770;2022-10-16T15:35:14;4.20;;;1.05;;
21326;SDS011;10822;51.532;6.770;2022-10-16T15:37:40;3.17;;;1.35;;
21326;SDS011;10822;51.532;6.770;2022-10-16T15:40:06;4.90;;;1.30;;
21326;SDS011;10822;51.532;6.770;2022-10-16T15:42:32;1.95;;;1.00;;
21326;SDS011;10822;51.532;6.770;2022-10-16T15:44:58;3.65;;;1.35;;
21326;SDS011;10822;51.532;6.770;2022-10-16T15:47:24;4.47;;;1.50;;
21326;SDS011;10822;51.532;6.770;2022-10-16T15:49:50;4.07;;;1.52;;
21326;SDS011;10822;51.532;6.770;2022-10-16T15:52:16;4.50;;;1.63;;
21326;SDS011;10822;51.532;6.770;2022-10-16T15:54:43;5.00;;;1.65;;
21326;SDS011;10822;51.532;6.770;2022-10-16T15:57:09;1.98;;;1.27;;
21326;SDS011;10822;51.532;6.770;2022-10-16T15:59:35;3.25;;;1.27;;
21326;SDS011;10822;51.532;6.770;2022-10-16T16:02:01;6.70;;;1.20;;
21326;SDS011;10822;51.532;6.770;2022-10-16T16:04:29;3.85;;;1.30;;
21326;SDS011;10822;51.532;6.770;2022-10-16T16:06:55;3.70;;;1.50;;
21326;SDS011;10822;51.532;6.770;2022-10-16T16:09:21;2.45;;;1.45;;
21326;SDS011;10822;51.532;6.770;2022-10-16T16:11:47;5.65;;;1.77;;
21326;SDS011;10822;51.532;6.770;2022-10-16T16:14:14;4.05;;;1.48;;
21326;SDS011;10822;51.532;6.770;2022-10-16T16:16:40;6.28;;;1.70;;
21326;SDS011;10822;51.532;6.770;2022-10-16T16:19:06;3.47;;;1.60;;
21326;SDS011;10822;51.532;6.770;2022-10-16T16:21:33;5.80;;;1.50;;
21326;SDS011;10822;51.532;6.770;2022-10-16T16:23:59;8.73;;;2.00;;
21326;SDS011;10822;51.532;6.770;2022-10-16T16:26:27;4.07;;;1.92;;
21326;SDS011;10822;51.532;6.770;2022-10-16T16:28:57;5.25;;;1.60;;
21326;SDS011;10822;51.532;6.770;2022-10-16T16:31:24;5.45;;;1.50;;
21326;SDS011;10822;51.532;6.770;2022-10-16T16:33:50;3.88;;;1.70;;
21326;SDS011;10822;51.532;6.770;2022-10-16T16:36:17;4.43;;;1.60;;
21326;SDS011;10822;51.532;6.770;2022-10-16T16:38:43;4.80;;;1.45;;
21326;SDS011;10822;51.532;6.770;2022-10-16T16:41:13;2.83;;;1.48;;
21326;SDS011;10822;51.532;6.770;2022-10-16T16:43:40;2.50;;;1.45;;
21326;SDS011;10822;51.532;6.770;2022-10-16T16:46:06;3.03;;;1.40;;